Time;durP1;ratioP1;P1;durP2;ratioP2;P2;SDS_P1;SDS_P2;PMS_P1;PMS_P2;Temp;Humidity;BMP_temperature;BMP_pressure;BME280_temperature;BME280_humidity;BME280_pressure;Samples;Min_cycle;Max_cycle;Signal;HPM_P1;HPM_P2
2022/06/30 00:00:42;;;;;;;1827.75;853.42;;;20.60;99.90;;;;;;5049945;28;20497;-75
2022/06/30 00:03:08;;;;;;;1999.90;842.72;;;20.60;99.90;;;;;;5049842;28;20044;-75
2022/06/30 00:05:34;;;;;;;1362.67;573.77;;;20.50;99.90;;;;;;5049861;28;20045;-75
2022/06/30 00:08:00;;;;;;;1589.28;414.27;;;20.50;99.90;;;;;;5049606;28;20511;-79
2022/06/30 00:10:26;;;;;;;1840.38;761.05;;;20.40;99.90;;;;;;5050390;28;20053;-75
2022/06/30 00:12:52;;;;;;;1999.90;948.58;;;20.30;99.90;;;;;;5049243;28;20132;-77
2022/06/30 00:15:18;;;;;;;1684.07;999.90;;;20.30;99.90;;;;;;5048724;28;20101;-75
2022/06/30 00:17:44;;;;;;;1999.90;999.90;;;20.20;99.90;;;;;;5050337;28;20446;-75
2022/06/30 00:20:11;;;;;;;1999.90;999.90;;;20.10;99.90;;;;;;5052945;28;20080;-75
2022/06/30 00:22:37;;;;;;;1988.55;987.60;;;20.10;99.90;;;;;;5052880;28;20061;-75
2022/06/30 00:25:03;;;;;;;1999.90;999.90;;;20.00;99.90;;;;;;5051792;28;20048;-75
2022/06/30 00:27:29;;;;;;;1315.57;950.20;;;20.00;99.90;;;;;;5052679;28;20057;-75
2022/06/30 00:29:55;;;;;;;1999.90;725.22;;;20.00;99.90;;;;;;5052341;28;20478;-75
2022/06/30 00:32:20;;;;;;;1999.90;888.40;;;19.90;99.90;;;;;;5053239;28;20048;-77
2022/06/30 00:34:46;;;;;;;1999.90;999.90;;;19.90;99.90;;;;;;5053030;28;20052;-78
2022/06/30 00:37:12;;;;;;;1898.35;999.90;;;19.10;99.90;;;;;;5051564;28;20504;-75
2022/06/30 00:39:37;;;;;;;1921.07;854.85;;;19.80;99.90;;;;;;5051842;28;20386;-75
2022/06/30 00:42:10;;;;;;;1999.90;817.45;;;19.70;99.90;;;;;;5051340;28;20055;-80
2022/06/30 00:44:37;;;;;;;1999.90;999.90;;;19.70;99.90;;;;;;5051729;28;20310;-75
2022/06/30 00:47:05;;;;;;;1052.32;872.78;;;19.70;99.90;;;;;;5052948;28;20176;-81
2022/06/30 00:49:31;;;;;;;1999.90;999.90;;;19.60;99.90;;;;;;5068886;28;20044;-74
2022/06/30 00:51:58;;;;;;;1999.90;999.90;;;19.60;99.90;;;;;;5053369;28;20045;-74
2022/06/30 00:54:24;;;;;;;1999.90;937.10;;;19.50;99.90;;;;;;5051494;28;20573;-75
2022/06/30 00:56:52;;;;;;;1999.90;999.90;;;19.50;99.90;;;;;;5051805;28;20041;-75
2022/06/30 00:59:20;;;;;;;1999.90;999.90;;;19.50;99.90;;;;;;5052739;28;20448;-76
2022/06/30 01:01:47;;;;;;;1999.90;999.90;;;19.40;99.90;;;;;;5052887;28;20041;-75
2022/06/30 01:04:17;;;;;;;1999.90;946.28;;;19.30;99.90;;;;;;5052498;28;20080;-75
2022/06/30 01:06:44;;;;;;;1999.90;878.17;;;19.30;99.90;;;;;;5052970;28;20041;-75
2022/06/30 01:09:10;;;;;;;1999.90;939.00;;;19.30;99.90;;;;;;5051651;28;20073;-76
2022/06/30 01:14:21;;;;;;;1999.90;999.90;;;19.30;99.90;;;;;;5064571;28;20488;-76
2022/06/30 01:16:47;;;;;;;1999.90;999.90;;;19.20;99.90;;;;;;5051849;28;20045;-75
2022/06/30 01:19:15;;;;;;;1999.90;999.90;;;19.20;99.90;;;;;;5052046;28;20082;-76
2022/06/30 01:21:57;;;;;;;1999.90;999.90;;;19.10;99.90;;;;;;5052348;28;20053;-76
2022/06/30 01:24:22;;;;;;;1973.15;901.40;;;19.10;99.90;;;;;;5051838;28;20132;-75
2022/06/30 01:26:48;;;;;;;1999.90;992.33;;;19.10;99.90;;;;;;5052702;28;20140;-75
2022/06/30 01:29:13;;;;;;;1790.80;828.08;;;19.10;99.90;;;;;;5067215;28;20041;-75
2022/06/30 01:31:39;;;;;;;1999.90;852.55;;;19.10;99.90;;;;;;5051791;28;20485;-75
2022/06/30 01:34:05;;;;;;;1219.20;871.22;;;19.10;99.90;;;;;;5051889;28;20468;-76
2022/06/30 01:36:30;;;;;;;1999.90;999.90;;;19.10;99.90;;;;;;5050498;28;20163;-75
2022/06/30 01:38:56;;;;;;;1999.90;999.90;;;19.10;99.90;;;;;;5050837;28;20587;-76
2022/06/30 01:41:22;;;;;;;1999.90;999.10;;;19.10;99.90;;;;;;5051393;28;20040;-77
2022/06/30 01:43:47;;;;;;;1847.25;768.72;;;19.10;99.90;;;;;;5066968;28;20063;-76
2022/06/30 01:46:18;;;;;;;1999.90;999.90;;;19.20;99.90;;;;;;5051534;28;20067;-76
2022/06/30 01:48:44;;;;;;;1999.90;891.70;;;19.20;99.90;;;;;;5049782;28;20128;-75
2022/06/30 01:51:09;;;;;;;1919.40;846.10;;;19.20;99.90;;;;;;5084187;28;20149;-81
2022/06/30 01:53:35;;;;;;;1999.90;999.90;;;19.20;99.90;;;;;;5051475;28;20056;-76
2022/06/30 01:56:01;;;;;;;1999.90;864.42;;;19.20;99.90;;;;;;5051610;28;20500;-75
2022/06/30 01:58:26;;;;;;;1999.90;729.95;;;19.20;99.90;;;;;;5051273;28;20084;-76
2022/06/30 02:00:52;;;;;;;1999.90;977.42;;;19.40;99.90;;;;;;5051394;28;20048;-78
2022/06/30 02:03:18;;;;;;;1999.90;955.72;;;19.20;99.90;;;;;;5050596;28;20124;-76
2022/06/30 02:05:44;;;;;;;1999.90;999.90;;;19.20;99.90;;;;;;5051701;28;20048;-76
2022/06/30 02:08:10;;;;;;;1999.90;999.90;;;19.10;99.90;;;;;;5066757;28;20055;-76
2022/06/30 02:10:36;;;;;;;1999.90;876.78;;;19.20;99.90;;;;;;5050959;28;20045;-76
2022/06/30 02:13:01;;;;;;;1999.90;981.75;;;19.20;99.90;;;;;;5049504;28;20486;-76
2022/06/30 02:15:32;;;;;;;1669.20;522.55;;;19.10;99.90;;;;;;5050186;28;20064;-75
2022/06/30 02:18:00;;;;;;;1999.90;999.90;;;19.10;99.90;;;;;;5050944;28;20485;-76
2022/06/30 02:20:25;;;;;;;1999.90;751.90;;;19.00;99.90;;;;;;5050704;28;20049;-75
2022/06/30 02:22:54;;;;;;;1999.90;829.10;;;18.90;99.90;;;;;;5051538;28;20056;-76
2022/06/30 02:25:20;;;;;;;1999.90;934.10;;;18.90;99.90;;;;;;5050665;28;20048;-75
2022/06/30 02:27:46;;;;;;;1557.53;788.78;;;18.90;99.90;;;;;;5049330;28;20492;-75
2022/06/30 02:30:12;;;;;;;1972.18;999.90;;;18.90;99.90;;;;;;5050851;28;20049;-74
2022/06/30 02:32:38;;;;;;;1999.90;999.90;;;18.90;99.90;;;;;;5049904;28;20488;-75
2022/06/30 02:35:04;;;;;;;1999.90;999.90;;;18.90;99.90;;;;;;5050883;28;20045;-75
2022/06/30 02:37:30;;;;;;;1696.03;999.90;;;18.80;99.90;;;;;;5049128;28;20386;-75
2022/06/30 02:39:56;;;;;;;1999.90;999.90;;;18.80;99.90;;;;;;5048909;28;20045;-75
2022/06/30 02:42:22;;;;;;;1999.90;932.08;;;18.70;99.90;;;;;;5065971;28;20041;-75
2022/06/30 02:44:48;;;;;;;1936.35;999.90;;;18.70;99.90;;;;;;5049114;28;20477;-77
2022/06/30 02:47:13;;;;;;;1999.90;986.65;;;18.60;99.90;;;;;;5049527;28;20049;-76
2022/06/30 02:49:39;;;;;;;1999.90;886.35;;;18.60;99.90;;;;;;5049724;28;20110;-75
2022/06/30 02:52:06;;;;;;;1971.78;711.75;;;18.60;99.90;;;;;;5050641;28;20049;-77
2022/06/30 02:54:32;;;;;;;1999.90;999.90;;;18.50;99.90;;;;;;5050280;28;20056;-75
2022/06/30 02:56:58;;;;;;;1631.07;937.40;;;18.50;99.90;;;;;;5050550;28;20123;-75
2022/06/30 02:59:24;;;;;;;1999.90;999.90;;;18.40;99.90;;;;;;5065114;28;20041;-75
2022/06/30 03:01:49;;;;;;;1999.90;890.45;;;18.30;99.90;;;;;;5048966;28;20044;-76
2022/06/30 03:04:15;;;;;;;1837.45;547.33;;;18.30;99.90;;;;;;5049400;28;20049;-76
2022/06/30 03:06:41;;;;;;;1778.30;522.78;;;18.20;99.90;;;;;;5050428;28;20044;-75
2022/06/30 03:09:07;;;;;;;1993.18;965.22;;;18.20;99.90;;;;;;5066604;28;20052;-75
2022/06/30 03:11:32;;;;;;;1999.90;991.92;;;18.10;99.90;;;;;;5065351;28;20482;-74
2022/06/30 03:13:58;;;;;;;1999.90;999.90;;;18.10;1.00;;;;;;5050542;28;20052;-75
2022/06/30 03:16:24;;;;;;;1993.72;778.72;;;18.20;1.00;;;;;;5049973;28;20057;-75
2022/06/30 03:18:52;;;;;;;1999.90;790.22;;;18.10;1.00;;;;;;5050472;28;20045;-75
2022/06/30 03:21:18;;;;;;;;;;;18.10;1.00;;;;;;5051000;28;20056;-75
2022/06/30 03:23:43;;;;;;;1834.78;999.90;;;18.10;1.00;;;;;;5048807;28;19928;-75
2022/06/30 03:26:09;;;;;;;1969.05;999.90;;;18.10;99.90;;;;;;5050410;28;20225;-75
2022/06/30 03:28:35;;;;;;;1893.70;856.53;;;18.10;99.90;;;;;;5081647;28;20052;-75
2022/06/30 03:31:01;;;;;;;1999.90;999.90;;;18.10;99.90;;;;;;5049321;28;20131;-80
2022/06/30 03:33:26;;;;;;;1999.90;999.90;;;18.10;99.90;;;;;;5050626;28;20056;-75
2022/06/30 03:35:53;;;;;;;1999.90;951.03;;;18.10;99.90;;;;;;5048821;28;20127;-75
2022/06/30 03:38:18;;;;;;;1195.63;824.63;;;18.10;1.00;;;;;;5050857;28;20045;-76
2022/06/30 03:40:44;;;;;;;1999.90;977.78;;;18.00;1.00;;;;;;5050122;28;20048;-75
2022/06/30 03:43:10;;;;;;;1976.80;789.78;;;18.00;1.00;;;;;;5050010;28;20118;-75
2022/06/30 03:45:36;;;;;;;1851.43;838.60;;;18.00;1.00;;;;;;5049456;28;20044;-75
2022/06/30 03:48:05;;;;;;;1924.25;917.20;;;17.90;1.00;;;;;;5050244;28;20041;-77
2022/06/30 03:50:32;;;;;;;1300.78;681.28;;;17.90;1.00;;;;;;5081116;28;20049;-76
2022/06/30 03:52:59;;;;;;;1999.90;998.55;;;17.90;1.00;;;;;;5051397;28;20047;-75
2022/06/30 03:55:27;;;;;;;1999.90;999.90;;;17.90;1.00;;;;;;5053152;28;20059;-78
2022/06/30 03:57:53;;;;;;;1941.60;727.33;;;17.80;1.00;;;;;;5054179;28;20056;-75
2022/06/30 04:00:19;;;;;;;1999.90;762.25;;;17.80;1.00;;;;;;5053966;28;20048;-75
2022/06/30 04:02:45;;;;;;;1999.90;715.40;;;17.80;1.00;;;;;;5052801;28;20580;-79
2022/06/30 04:05:10;;;;;;;1999.90;999.90;;;17.70;1.00;;;;;;5053870;28;20041;-75
2022/06/30 04:07:45;;;;;;;1999.90;999.90;;;17.70;1.00;;;;;;5053607;28;20056;-79
2022/06/30 04:10:12;;;;;;;1999.90;999.90;;;17.70;1.00;;;;;;5052664;28;20131;-75
2022/06/30 04:12:38;;;;;;;1999.90;999.90;;;17.70;1.00;;;;;;5053161;28;20501;-75
2022/06/30 04:15:05;;;;;;;1999.90;999.90;;;17.60;1.00;;;;;;5052936;28;20061;-76
2022/06/30 04:17:34;;;;;;;1999.90;999.90;;;17.60;1.00;;;;;;5052369;28;20052;-76
2022/06/30 04:20:01;;;;;;;1999.90;999.90;;;17.60;1.00;;;;;;5052449;28;20133;-76
2022/06/30 04:22:26;;;;;;;1999.90;999.90;;;17.70;1.00;;;;;;5052886;28;20146;-82
2022/06/30 04:24:52;;;;;;;1999.90;999.90;;;17.70;1.00;;;;;;5052824;28;20211;-76
2022/06/30 04:27:18;;;;;;;1999.90;999.90;;;17.70;1.00;;;;;;5052785;28;20489;-79
2022/06/30 04:29:44;;;;;;;1999.90;999.90;;;17.80;1.00;;;;;;5051355;28;20041;-80
2022/06/30 04:34:54;;;;;;;1999.90;999.90;;;17.80;1.00;;;;;;5052898;28;20045;-78
2022/06/30 04:37:19;;;;;;;1999.90;999.90;;;17.90;1.00;;;;;;5053408;28;20049;-76
2022/06/30 04:39:45;;;;;;;1999.90;999.90;;;17.90;1.00;;;;;;5051629;28;20052;-77
2022/06/30 04:42:11;;;;;;;1999.90;976.70;;;18.00;1.00;;;;;;5051915;28;20131;-76
2022/06/30 04:44:36;;;;;;;1999.90;909.00;;;18.00;1.00;;;;;;5051930;28;20053;-76
2022/06/30 04:47:02;;;;;;;1975.32;907.80;;;18.10;1.00;;;;;;5051195;28;20057;-77
2022/06/30 04:49:28;;;;;;;1999.90;999.90;;;18.20;1.00;;;;;;5051276;28;20128;-75
2022/06/30 04:51:54;;;;;;;1999.90;999.90;;;18.20;1.00;;;;;;5051058;28;20060;-76
2022/06/30 04:54:19;;;;;;;1999.90;999.90;;;18.30;1.00;;;;;;5051716;28;20544;-76
2022/06/30 04:56:45;;;;;;;1999.90;904.85;;;18.30;1.00;;;;;;5050571;28;20449;-75
2022/06/30 04:59:10;;;;;;;1999.90;999.90;;;18.40;1.00;;;;;;5052494;28;20132;-75
2022/06/30 05:01:36;;;;;;;1999.90;999.90;;;18.40;1.00;;;;;;5050903;28;20108;-78
2022/06/30 05:04:02;;;;;;;1999.90;999.90;;;18.50;1.00;;;;;;5052510;28;20060;-76
2022/06/30 05:06:28;;;;;;;1999.90;999.90;;;18.50;1.00;;;;;;5067702;28;20049;-75
2022/06/30 05:08:53;;;;;;;1999.90;999.90;;;18.60;1.00;;;;;;5052294;28;20216;-75
2022/06/30 05:11:19;;;;;;;1968.15;616.35;;;18.60;1.00;;;;;;5052569;28;20053;-76
2022/06/30 05:13:45;;;;;;;1953.05;952.35;;;18.60;1.00;;;;;;5052112;28;20198;-75
2022/06/30 05:16:10;;;;;;;1999.90;999.90;;;18.60;1.00;;;;;;5051741;28;20061;-76
2022/06/30 05:18:36;;;;;;;1686.38;999.90;;;18.60;1.00;;;;;;5083966;28;20056;-75
2022/06/30 05:21:02;;;;;;;1999.90;999.90;;;18.70;1.00;;;;;;5052278;28;20127;-79
2022/06/30 05:23:27;;;;;;;1999.90;999.90;;;18.80;1.00;;;;;;5084243;28;20491;-81
2022/06/30 05:28:38;;;;;;;1974.03;636.17;;;18.70;1.00;;;;;;5052432;28;20106;-76
2022/06/30 05:31:03;;;;;;;1320.30;605.72;;;18.80;1.00;;;;;;5050959;28;20053;-77
2022/06/30 05:33:29;;;;;;;1916.97;999.90;;;19.50;1.00;;;;;;5052494;28;20049;-77
2022/06/30 05:35:55;;;;;;;1999.90;999.90;;;18.90;1.00;;;;;;5052110;28;20049;-77
2022/06/30 05:38:24;;;;;;;1999.90;999.90;;;18.90;1.00;;;;;;5052131;28;20406;-77
2022/06/30 05:40:50;;;;;;;1999.90;999.90;;;19.00;1.00;;;;;;5051702;28;20055;-77
2022/06/30 05:43:18;;;;;;;1999.90;999.90;;;18.90;1.00;;;;;;5050510;28;20045;-77
2022/06/30 05:45:51;;;;;;;1999.90;999.90;;;19.00;1.00;;;;;;5051223;28;20049;-76
2022/06/30 05:48:18;;;;;;;1988.50;999.90;;;19.00;1.00;;;;;;5052380;28;20041;-77
2022/06/30 05:50:43;;;;;;;1969.18;999.90;;;19.10;1.00;;;;;;5051925;28;20080;-76
2022/06/30 05:53:09;;;;;;;1999.90;999.90;;;19.10;1.00;;;;;;5052641;28;20079;-81
2022/06/30 05:55:35;;;;;;;1999.90;999.90;;;19.10;1.00;;;;;;5050493;28;20045;-77
2022/06/30 05:58:01;;;;;;;1999.90;999.90;;;19.20;1.00;;;;;;5051667;28;20098;-76
2022/06/30 06:00:29;;;;;;;1999.90;989.30;;;19.30;1.00;;;;;;5052011;28;20109;-77
2022/06/30 06:02:55;;;;;;;1999.90;999.90;;;19.30;1.00;;;;;;5052176;28;20041;-77
2022/06/30 06:05:21;;;;;;;1999.90;999.90;;;19.40;1.00;;;;;;5052093;28;20047;-77
2022/06/30 06:07:48;;;;;;;1999.90;999.90;;;19.50;1.00;;;;;;5051614;28;20049;-77
2022/06/30 06:10:15;;;;;;;1999.90;999.90;;;19.50;1.00;;;;;;5052498;28;20377;-77
2022/06/30 06:12:43;;;;;;;1999.90;999.90;;;19.60;1.00;;;;;;5051648;28;20045;-77
2022/06/30 06:15:13;;;;;;;1999.90;999.90;;;19.70;1.00;;;;;;5050849;28;20056;-77
2022/06/30 06:17:42;;;;;;;1999.90;999.90;;;19.70;1.00;;;;;;5051602;28;20378;-77
2022/06/30 06:20:09;;;;;;;1999.90;999.90;;;19.90;1.00;;;;;;5052078;28;20088;-76
2022/06/30 06:22:34;;;;;;;1999.90;999.90;;;20.00;1.00;;;;;;5051007;28;20068;-77
2022/06/30 06:25:00;;;;;;;1999.90;999.90;;;20.00;1.00;;;;;;5051666;28;20151;-77
2022/06/30 06:27:26;;;;;;;1999.90;999.90;;;20.10;1.00;;;;;;5050706;28;20060;-77
2022/06/30 06:29:51;;;;;;;1999.90;999.90;;;20.20;1.00;;;;;;5050668;28;20045;-77
2022/06/30 06:32:17;;;;;;;1814.57;999.90;;;20.20;1.00;;;;;;5050892;28;20205;-77
2022/06/30 06:34:43;;;;;;;1616.20;999.90;;;20.30;99.90;;;;;;5066837;28;20076;-80
2022/06/30 06:37:09;;;;;;;1999.90;999.90;;;20.40;99.90;;;;;;5051936;28;20040;-78
2022/06/30 06:39:34;;;;;;;1753.35;999.90;;;20.50;99.90;;;;;;5049290;28;20496;-77
2022/06/30 06:42:00;;;;;;;1999.90;999.90;;;20.50;99.90;;;;;;5050965;28;20051;-77
2022/06/30 06:44:25;;;;;;;1999.90;999.90;;;20.60;99.90;;;;;;5051769;28;20045;-77
2022/06/30 06:46:51;;;;;;;1999.90;999.90;;;20.70;99.90;;;;;;5050980;28;20101;-78
2022/06/30 06:49:17;;;;;;;1981.07;999.90;;;20.80;99.90;;;;;;5051240;28;20131;-76
2022/06/30 06:51:42;;;;;;;1704.05;916.88;;;20.90;99.90;;;;;;5050249;28;20044;-77
2022/06/30 06:54:08;;;;;;;1999.90;999.90;;;20.90;99.90;;;;;;5051768;28;20128;-76
2022/06/30 06:56:34;;;;;;;1999.90;999.90;;;21.00;99.90;;;;;;5050009;28;20088;-77
2022/06/30 06:58:59;;;;;;;1987.90;999.90;;;21.00;99.90;;;;;;5050762;28;20106;-77
2022/06/30 07:01:25;;;;;;;1838.82;753.03;;;21.20;99.90;;;;;;5051094;28;20045;-76
2022/06/30 07:03:51;;;;;;;1864.70;999.90;;;21.20;99.90;;;;;;5050106;28;20048;-76
2022/06/30 07:06:17;;;;;;;1999.90;880.63;;;21.30;99.90;;;;;;5066445;28;20552;-76
2022/06/30 07:08:42;;;;;;;1999.90;999.90;;;21.40;99.90;;;;;;5049486;28;20063;-76
2022/06/30 07:11:09;;;;;;;1883.03;820.17;;;21.50;99.90;;;;;;5066319;28;20044;-77
2022/06/30 07:13:35;;;;;;;1931.03;999.90;;;22.50;99.90;;;;;;5051141;28;20461;-80
2022/06/30 07:16:01;;;;;;;1178.43;950.38;;;23.90;99.90;;;;;;5050248;28;20315;-77
2022/06/30 07:18:27;;;;;;;897.92;798.65;;;25.20;99.90;;;;;;5050835;28;20045;-76
2022/06/30 07:20:53;;;;;;;723.20;661.63;;;26.40;99.90;;;;;;5083184;28;20163;-77
2022/06/30 07:23:19;;;;;;;852.47;787.47;;;27.40;91.70;;;;;;5051147;28;20049;-76
2022/06/30 07:25:45;;;;;;;951.67;875.88;;;28.00;91.10;;;;;;5049790;28;20049;-76
2022/06/30 07:28:10;;;;;;;1005.63;908.35;;;29.20;91.40;;;;;;5054473;28;20033;-77
2022/06/30 07:30:36;;;;;;;722.25;669.15;;;29.60;40.20;;;;;;5053463;28;20435;-77
2022/06/30 07:33:02;;;;;;;751.63;693.03;;;29.60;19.40;;;;;;5055136;28;20462;-76
2022/06/30 07:35:28;;;;;;;755.10;688.30;;;30.00;16.90;;;;;;5053296;28;20052;-77
2022/06/30 07:37:54;;;;;;;550.35;488.60;;;29.80;15.60;;;;;;5053735;28;20159;-76
2022/06/30 07:40:20;;;;;;;1999.90;999.90;;;30.20;10.60;;;;;;5054422;28;20060;-77
2022/06/30 07:42:45;;;;;;;1999.90;999.90;;;30.00;7.90;;;;;;5052847;28;20071;-79
2022/06/30 07:45:11;;;;;;;1999.90;999.90;;;30.40;8.70;;;;;;5054204;28;20048;-77
2022/06/30 07:47:46;;;;;;;1999.90;999.90;;;30.50;4.00;;;;;;5054604;28;20060;-79
2022/06/30 07:50:12;;;;;;;1999.90;999.90;;;31.10;3.00;;;;;;5053606;28;20106;-77
2022/06/30 07:52:38;;;;;;;1999.90;999.90;;;32.20;3.50;;;;;;5069792;28;20088;-78
2022/06/30 07:55:05;;;;;;;1999.90;999.90;;;31.70;1.00;;;;;;5053167;28;20056;-78
2022/06/30 07:57:30;;;;;;;1999.90;999.90;;;32.20;1.00;;;;;;5053314;28;20098;-77
2022/06/30 07:59:56;;;;;;;1999.90;999.90;;;32.60;1.00;;;;;;5052162;28;20052;-78
2022/06/30 08:02:22;;;;;;;1999.90;999.90;;;33.10;1.00;;;;;;5054544;28;20102;-78
2022/06/30 08:04:48;;;;;;;1999.90;999.90;;;33.20;1.00;;;;;;5052723;28;20052;-78
2022/06/30 08:07:14;;;;;;;1999.90;999.90;;;33.60;1.00;;;;;;5052663;28;20064;-78
2022/06/30 08:09:39;;;;;;;1999.90;999.90;;;33.70;1.00;;;;;;5053840;28;20152;-79
2022/06/30 08:12:06;;;;;;;1999.90;999.90;;;33.50;1.00;;;;;;5052820;28;20113;-78
2022/06/30 08:14:55;;;;;;;1999.90;999.90;;;33.60;1.00;;;;;;5052458;28;20061;-77
2022/06/30 08:17:21;;;;;;;1999.90;999.90;;;33.90;1.00;;;;;;5067335;28;20088;-78
2022/06/30 08:19:50;;;;;;;1999.90;999.90;;;33.70;1.00;;;;;;5051844;28;20088;-84
2022/06/30 08:22:25;;;;;;;1999.90;999.90;;;34.60;1.00;;;;;;5053822;28;20532;-79
2022/06/30 08:24:56;;;;;;;1999.90;999.90;;;35.00;1.00;;;;;;5052793;28;20231;-78
2022/06/30 08:27:28;;;;;;;1999.90;999.90;;;34.80;1.00;;;;;;5053821;28;20382;-78
2022/06/30 08:30:19;;;;;;;1999.90;999.90;;;34.10;1.00;;;;;;5052101;28;20110;-78
2022/06/30 08:32:46;;;;;;;1705.90;937.15;;;34.70;1.00;;;;;;5053007;28;20044;-78
2022/06/30 08:35:15;;;;;;;1999.90;999.90;;;34.90;1.00;;;;;;5052746;28;20489;-79
2022/06/30 08:37:46;;;;;;;952.97;875.55;;;35.70;1.00;;;;;;5051851;28;20050;-78
2022/06/30 08:43:02;;;;;;;972.83;891.60;;;35.90;1.00;;;;;;5069148;28;20053;-79
2022/06/30 08:45:29;;;;;;;1999.90;999.90;;;36.40;1.00;;;;;;5052064;28;20389;-78
2022/06/30 08:47:55;;;;;;;1019.38;930.20;;;37.20;1.00;;;;;;5065117;28;20037;-79
2022/06/30 08:50:21;;;;;;;1075.07;972.90;;;37.60;1.00;;;;;;5051944;28;20063;-78
2022/06/30 08:52:59;;;;;;;1031.20;940.60;;;38.20;1.00;;;;;;5050903;28;20481;-84
2022/06/30 08:55:30;;;;;;;1058.20;959.00;;;38.40;1.00;;;;;;5052737;28;20048;-78
2022/06/30 08:58:03;;;;;;;1065.32;965.28;;;38.30;1.00;;;;;;5050494;28;20393;-78
2022/06/30 09:00:29;;;;;;;1057.43;949.22;;;38.30;1.00;;;;;;5050697;28;20049;-79
2022/06/30 09:02:56;;;;;;;1079.18;970.83;;;38.30;1.00;;;;;;5034034;28;20055;-79
2022/06/30 09:05:22;;;;;;;1102.07;979.63;;;37.80;1.00;;;;;;5083990;28;20148;-84
2022/06/30 09:07:47;;;;;;;1070.80;967.55;;;38.30;1.00;;;;;;5051202;28;20117;-78
2022/06/30 09:10:13;;;;;;;1081.72;971.78;;;38.60;1.00;;;;;;5051694;28;20110;-78
2022/06/30 09:12:41;;;;;;;1100.30;982.45;;;38.80;1.00;;;;;;5053073;28;20083;-78
2022/06/30 09:15:07;;;;;;;1094.40;982.20;;;38.40;1.00;;;;;;5052232;28;20225;-79
2022/06/30 09:17:33;;;;;;;1021.13;920.13;;;38.60;1.00;;;;;;5052052;28;20057;-79
2022/06/30 09:20:05;;;;;;;1090.70;983.15;;;38.10;1.00;;;;;;5051427;28;20440;-78
2022/06/30 09:22:34;;;;;;;1117.00;996.40;;;38.80;1.00;;;;;;5068884;28;20052;-78
2022/06/30 09:25:09;;;;;;;966.47;869.47;;;38.60;1.00;;;;;;5052585;28;20394;-78
2022/06/30 09:27:47;;;;;;;985.70;898.28;;;39.40;1.00;;;;;;5052667;28;20057;-78
2022/06/30 09:30:21;;;;;;;1073.88;960.75;;;39.70;1.00;;;;;;5051088;28;20124;-78
2022/06/30 09:32:56;;;;;;;1077.63;963.83;;;39.70;1.00;;;;;;5052507;28;20140;-78
2022/06/30 09:35:23;;;;;;;1028.72;925.75;;;40.20;1.00;;;;;;5049570;28;20503;-78
2022/06/30 09:38:03;;;;;;;896.45;817.30;;;40.50;1.00;;;;;;5051511;28;20060;-78
2022/06/30 09:40:34;;;;;;;821.25;756.00;;;40.30;1.00;;;;;;5050215;28;20099;-78
2022/06/30 09:43:00;;;;;;;871.47;800.20;;;39.70;1.00;;;;;;5048875;28;20041;-78
2022/06/30 09:45:42;;;;;;;735.23;677.80;;;39.80;1.00;;;;;;5051735;28;20122;-78
2022/06/30 09:48:10;;;;;;;869.08;798.08;;;39.30;1.00;;;;;;5052066;28;20037;-79
2022/06/30 09:50:36;;;;;;;774.05;714.67;;;38.80;1.00;;;;;;5048180;28;20250;-78
2022/06/30 09:53:10;;;;;;;787.77;724.63;;;39.50;1.00;;;;;;5051306;28;20052;-80
2022/06/30 09:55:39;;;;;;;824.17;757.97;;;39.40;1.00;;;;;;5049199;28;20087;-77
2022/06/30 09:58:04;;;;;;;811.92;747.65;;;39.20;1.00;;;;;;5050533;28;20551;-77
2022/06/30 10:00:30;;;;;;;770.87;708.20;;;38.90;1.00;;;;;;5050803;28;20048;-77
2022/06/30 10:03:05;;;;;;;851.72;782.22;;;38.30;1.00;;;;;;5050589;28;20049;-77
2022/06/30 10:05:31;;;;;;;742.90;684.80;;;36.70;1.00;;;;;;5052079;28;20049;-77
2022/06/30 10:07:58;;;;;;;738.07;682.00;;;36.20;1.00;;;;;;5051561;28;20524;-77
2022/06/30 10:10:25;;;;;;;633.53;586.65;;;36.80;1.00;;;;;;5051750;28;20056;-77
2022/06/30 10:12:52;;;;;;;747.38;689.33;;;37.70;1.00;;;;;;5065548;28;20190;-77
2022/06/30 10:15:21;;;;;;;675.20;627.70;;;38.10;1.00;;;;;;5048528;28;20133;-78
2022/06/30 10:17:57;;;;;;;639.70;592.42;;;37.30;1.00;;;;;;5048891;28;20071;-77
2022/06/30 10:20:23;;;;;;;729.03;673.53;;;37.20;1.00;;;;;;5049878;28;20083;-78
2022/06/30 10:22:49;;;;;;;815.83;751.43;;;37.40;1.00;;;;;;5050812;28;20041;-77
2022/06/30 10:25:17;;;;;;;685.80;633.50;;;38.10;1.00;;;;;;5051824;28;20244;-78
2022/06/30 10:27:45;;;;;;;786.03;722.40;;;38.60;1.00;;;;;;5050638;28;20049;-77
2022/06/30 10:30:14;;;;;;;856.70;775.97;;;38.80;1.00;;;;;;5050741;28;20045;-77
2022/06/30 10:33:08;;;;;;;769.42;709.15;;;38.30;1.00;;;;;;5051334;28;20098;-77
2022/06/30 10:35:44;;;;;;;738.40;682.53;;;37.40;1.00;;;;;;5051125;28;20052;-77
2022/06/30 10:38:33;;;;;;;623.38;577.33;;;37.90;1.00;;;;;;5046439;28;20481;-77
2022/06/30 10:41:15;;;;;;;810.85;746.30;;;39.00;1.00;;;;;;5051025;28;20045;-83
2022/06/30 10:44:03;;;;;;;894.53;821.15;;;39.40;1.00;;;;;;5049765;28;20500;-77
2022/06/30 10:46:33;;;;;;;863.25;793.45;;;39.00;1.00;;;;;;5050495;28;20441;-78
2022/06/30 10:48:59;;;;;;;765.72;709.40;;;38.40;1.00;;;;;;5049643;28;20079;-82
2022/06/30 10:51:26;;;;;;;754.50;700.47;;;38.50;1.00;;;;;;5049925;28;20049;-78
2022/06/30 10:53:55;;;;;;;834.58;768.58;;;38.90;1.00;;;;;;5064957;28;20083;-78
2022/06/30 10:56:45;;;;;;;856.75;785.00;;;39.00;1.00;;;;;;5049626;28;20052;-78
2022/06/30 10:59:12;;;;;;;900.17;822.58;;;38.20;1.00;;;;;;5044025;28;20118;-77
2022/06/30 11:01:39;;;;;;;;;;;37.10;1.00;;;;;;5050250;28;20061;-77
2022/06/30 11:04:06;;;;;;;911.37;833.13;;;36.20;1.00;;;;;;5048256;28;19924;-77
2022/06/30 11:06:58;;;;;;;686.50;637.53;;;35.50;1.00;;;;;;5050057;28;20442;-78
2022/06/30 11:09:47;;;;;;;624.85;580.50;;;34.90;1.00;;;;;;5048858;28;20045;-80
2022/06/30 11:12:15;;;;;;;602.45;559.92;;;35.00;1.00;;;;;;5048838;28;20053;-77
2022/06/30 11:14:48;;;;;;;1566.10;915.83;;;35.50;1.00;;;;;;5050747;28;20055;-77
2022/06/30 11:17:22;;;;;;;778.03;721.20;;;35.80;1.00;;;;;;5050522;28;20117;-78
2022/06/30 11:19:48;;;;;;;787.72;729.65;;;35.40;1.00;;;;;;5050316;28;20049;-78
2022/06/30 11:22:17;;;;;;;689.90;640.42;;;34.70;1.00;;;;;;5048883;28;20045;-77
2022/06/30 11:24:45;;;;;;;885.13;813.05;;;34.20;1.00;;;;;;5049414;28;20053;-79
2022/06/30 11:27:18;;;;;;;931.05;852.70;;;34.10;1.00;;;;;;5050285;28;20105;-77
2022/06/30 11:29:47;;;;;;;1007.00;914.50;;;33.70;1.00;;;;;;5050643;28;20048;-81
2022/06/30 11:32:13;;;;;;;1119.53;917.25;;;33.20;1.00;;;;;;5050630;28;20060;-76
2022/06/30 11:34:40;;;;;;;1188.57;824.65;;;32.90;1.00;;;;;;5050530;28;20477;-77
2022/06/30 11:37:09;;;;;;;1510.43;999.90;;;32.50;1.00;;;;;;5050149;28;20049;-77
2022/06/30 11:39:35;;;;;;;1179.03;999.90;;;32.20;1.00;;;;;;5065343;28;20120;-77
2022/06/30 11:42:06;;;;;;;1032.18;929.83;;;32.30;1.00;;;;;;5066001;28;20124;-77
2022/06/30 11:44:34;;;;;;;855.30;788.10;;;33.00;1.00;;;;;;5050788;28;20049;-77
2022/06/30 11:47:10;;;;;;;1060.93;952.25;;;34.30;1.00;;;;;;5050074;28;20393;-76
2022/06/30 11:49:59;;;;;;;662.15;616.08;;;35.60;1.00;;;;;;5050542;28;20041;-77
2022/06/30 11:52:37;;;;;;;;;;;36.40;1.00;;;;;;5050555;28;20138;-77
2022/06/30 11:55:06;;;;;;;819.25;752.28;;;37.20;1.00;;;;;;5050869;28;19928;-77
2022/06/30 11:57:36;;;;;;;560.53;520.65;;;37.20;1.00;;;;;;5047175;28;20478;-77
2022/06/30 12:00:07;;;;;;;895.58;819.47;;;38.20;1.00;;;;;;5047569;28;20150;-77
2022/06/30 12:02:35;;;;;;;851.88;782.75;;;38.80;1.00;;;;;;5049234;28;20074;-77
2022/06/30 12:05:03;;;;;;;690.30;635.05;;;39.40;1.00;;;;;;5049398;28;20053;-77
2022/06/30 12:07:29;;;;;;;840.13;773.92;;;39.60;1.00;;;;;;5048781;28;20051;-77
2022/06/30 12:09:56;;;;;;;679.47;628.97;;;40.10;1.00;;;;;;5048892;28;20055;-78
2022/06/30 12:12:26;;;;;;;;;;;40.40;1.00;;;;;;5049566;28;20047;-77
2022/06/30 12:15:14;;;;;;;780.50;723.15;;;40.50;1.00;;;;;;5084159;28;19920;-77
2022/06/30 12:17:50;;;;;;;720.92;667.72;;;40.50;1.00;;;;;;5053813;28;20060;-76
2022/06/30 12:20:16;;;;;;;734.60;680.50;;;40.80;1.00;;;;;;5053552;28;20056;-77
2022/06/30 12:22:45;;;;;;;756.58;701.92;;;40.80;1.00;;;;;;5052486;28;20132;-77